createdAt,value
2023-05-11T00:02:16.640Z,99182.16
2023-05-11T00:05:04.177Z,99185.69
2023-05-11T00:07:50.625Z,99172.88
2023-05-11T00:10:37.118Z,99184.75
2023-05-11T00:13:25.050Z,99174.47
2023-05-11T00:16:11.690Z,99177.88
2023-05-11T00:18:58.175Z,99171.09
2023-05-11T00:21:44.824Z,99176.38
2023-05-11T00:24:31.380Z,99179.06
2023-05-11T00:27:18.136Z,99171.72
2023-05-11T00:30:08.675Z,99179.41
2023-05-11T00:32:55.490Z,99168.22
2023-05-11T00:35:42.794Z,99171.63
2023-05-11T00:38:29.211Z,99167.28
2023-05-11T00:41:15.892Z,99163.06
2023-05-11T00:44:02.622Z,99169.16
2023-05-11T00:46:50.767Z,99161.56
2023-05-11T00:49:37.498Z,99159.00
2023-05-11T00:52:24.167Z,99156.44
2023-05-11T00:55:12.362Z,99154.56
2023-05-11T00:57:59.388Z,99149.44
2023-05-11T01:00:47.744Z,99157.94
2023-05-11T01:03:36.616Z,99156.22
2023-05-11T01:06:31.833Z,99156.22
2023-05-11T01:09:33.474Z,99153.72
2023-05-11T01:12:27.490Z,99158.88
2023-05-11T01:15:19.200Z,99158.88
2023-05-11T01:18:17.056Z,99150.50
2023-05-11T01:21:08.155Z,99156.69
2023-05-11T01:24:26.900Z,99159.38
2023-05-11T01:27:48.436Z,99151.91
2023-05-11T01:30:42.907Z,99153.78
2023-05-11T01:33:33.587Z,99151.19
2023-05-11T01:36:22.092Z,99151.19
2023-05-11T01:39:11.611Z,99156.34
2023-05-11T01:42:06.072Z,99148.75
2023-05-11T01:44:54.733Z,99153.09
2023-05-11T01:47:44.957Z,99160.88
2023-05-11T01:50:34.008Z,99157.41
2023-05-11T01:53:22.457Z,99153.09
2023-05-11T01:56:12.042Z,99160.78
2023-05-11T01:58:59.184Z,99155.75
2023-05-11T02:01:46.259Z,99150.06
2023-05-11T02:04:36.368Z,99150.19
2023-05-11T02:07:25.322Z,99160.56
2023-05-11T02:10:15.147Z,99152.44
2023-05-11T02:13:05.151Z,99165.50
2023-05-11T02:15:57.157Z,99152.66
2023-05-11T02:18:44.147Z,99164.56
2023-05-11T02:21:33.880Z,99152.56
2023-05-11T02:24:21.859Z,99154.31
2023-05-11T02:27:08.476Z,99151.06
2023-05-11T02:29:54.934Z,99152.94
2023-05-11T02:32:50.365Z,99158.31
2023-05-11T02:35:42.027Z,99150.16
2023-05-11T02:38:34.910Z,99153.78
2023-05-11T02:41:29.588Z,99149.56
2023-05-11T02:44:21.238Z,99152.13
2023-05-11T02:47:13.178Z,99157.41
2023-05-11T02:50:04.209Z,99157.66
2023-05-11T02:52:57.911Z,99161.16
2023-05-11T02:55:46.995Z,99152.53
2023-05-11T02:58:34.461Z,99152.41
2023-05-11T03:01:34.966Z,99158.44
2023-05-11T03:04:21.470Z,99161.16
2023-05-11T03:07:09.079Z,99162.19
2023-05-11T03:09:56.005Z,99156.63
2023-05-11T03:12:44.417Z,99155.13
2023-05-11T03:15:31.174Z,99151.59
2023-05-11T03:18:22.402Z,99160.94
2023-05-11T03:21:09.609Z,99161.66
2023-05-11T03:23:57.873Z,99162.44
2023-05-11T03:26:45.021Z,99166.78
2023-05-11T03:29:34.448Z,99163.50
2023-05-11T03:32:21.121Z,99155.94
2023-05-11T03:35:09.906Z,99156.72
2023-05-11T03:37:58.498Z,99154.88
2023-05-11T03:40:48.053Z,99154.88
2023-05-11T03:43:37.171Z,99155.69
2023-05-11T03:46:26.496Z,99152.31
2023-05-11T03:49:14.016Z,99153.25
2023-05-11T03:52:02.747Z,99153.25
2023-05-11T03:54:49.440Z,99155.81
2023-05-11T03:57:36.161Z,99153.25
2023-05-11T04:00:22.572Z,99155.81
2023-05-11T04:03:11.133Z,99140.41
2023-05-11T04:05:59.129Z,99148.22
2023-05-11T04:08:45.920Z,99147.56
2023-05-11T04:11:32.205Z,99148.63
2023-05-11T04:14:20.513Z,99148.75
2023-05-11T04:17:07.966Z,99146.16
2023-05-11T04:19:55.996Z,99149.53
2023-05-11T04:22:43.363Z,99152.91
2023-05-11T04:25:30.144Z,99154.53
2023-05-11T04:28:16.374Z,99158.03
2023-05-11T04:31:02.868Z,99153.97
2023-05-11T04:33:49.486Z,99167.75
2023-05-11T04:36:37.795Z,99155.84
2023-05-11T04:39:24.484Z,99159.34
2023-05-11T04:42:11.160Z,99159.59
2023-05-11T04:44:57.779Z,99162.28
2023-05-11T04:47:44.353Z,99164.72
2023-05-11T04:50:32.858Z,99166.22
2023-05-11T04:53:21.696Z,99169.34
2023-05-11T04:56:08.367Z,99165.72
2023-05-11T04:58:54.711Z,99161.31
2023-05-11T05:01:41.643Z,99169.69
2023-05-11T05:04:28.230Z,99163.63
2023-05-11T05:07:14.696Z,99161.88
2023-05-11T05:10:03.907Z,99166.78
2023-05-11T05:12:51.349Z,99165.00
2023-05-11T05:15:37.983Z,99171.78
2023-05-11T05:18:24.783Z,99175.16
2023-05-11T05:21:11.161Z,99175.16
2023-05-11T05:23:57.922Z,99182.72
2023-05-11T05:26:46.040Z,99179.59
2023-05-11T05:29:33.486Z,99173.63
2023-05-11T05:32:20.241Z,99182.16
2023-05-11T05:35:08.357Z,99183.22
2023-05-11T05:37:55.248Z,99187.50
2023-05-11T05:40:41.619Z,99182.28
2023-05-11T05:43:29.526Z,99187.31
2023-05-11T05:46:17.311Z,99185.41
2023-05-11T05:49:04.289Z,99198.94
2023-05-11T05:51:52.063Z,99194.63
2023-05-11T05:54:38.961Z,99203.84
2023-05-11T05:57:26.441Z,99192.63
2023-05-11T06:00:16.473Z,99192.50
2023-05-11T06:03:07.069Z,99194.97
2023-05-11T06:05:53.546Z,99215.22
2023-05-11T06:08:40.766Z,99206.59
2023-05-11T06:11:33.356Z,99204.75
2023-05-11T06:14:20.247Z,99208.13
2023-05-11T06:17:08.307Z,99213.13
2023-05-11T06:19:55.313Z,99216.41
2023-05-11T06:22:45.231Z,99212.88
2023-05-11T06:25:35.639Z,99220.56
2023-05-11T06:28:24.387Z,99212.78
2023-05-11T06:31:13.507Z,99216.16
2023-05-11T06:34:03.510Z,99203.19
2023-05-11T06:36:51.682Z,99204.00
2023-05-11T06:39:38.512Z,99199.56
2023-05-11T06:42:28.081Z,99205.50
2023-05-11T06:45:25.053Z,99201.09
2023-05-11T06:48:13.015Z,99204.44
2023-05-11T06:51:01.154Z,99200.84
2023-05-11T06:53:47.764Z,99202.47
2023-05-11T06:56:34.909Z,99211.69
2023-05-11T06:59:22.304Z,99201.28
2023-05-11T07:02:09.395Z,99202.09
2023-05-11T07:04:56.151Z,99202.66
2023-05-11T07:07:44.150Z,99204.31
2023-05-11T07:10:30.870Z,99204.19
2023-05-11T07:13:17.345Z,99210.13
2023-05-11T07:16:04.295Z,99210.03
2023-05-11T07:18:51.584Z,99203.03
2023-05-11T07:21:38.229Z,99204.66
2023-05-11T07:24:26.234Z,99211.41
2023-05-11T07:27:12.897Z,99219.00
2023-05-11T07:29:59.519Z,99213.75
2023-05-11T07:32:46.152Z,99215.34
2023-05-11T07:35:32.932Z,99208.50
2023-05-11T07:38:19.301Z,99214.31
2023-05-11T07:41:08.857Z,99210.81
2023-05-11T07:43:57.068Z,99211.59
2023-05-11T07:46:43.439Z,99206.38
2023-05-11T07:49:42.530Z,99209.75
2023-05-11T07:52:30.294Z,99218.13
2023-05-11T07:55:16.902Z,99206.91
2023-05-11T07:58:05.353Z,99211.13
2023-05-11T08:00:52.041Z,99208.31
2023-05-11T08:03:38.843Z,99205.75
2023-05-11T08:06:25.429Z,99209.94
2023-05-11T08:09:11.924Z,99210.75
2023-05-11T08:11:58.658Z,99210.66
2023-05-11T08:14:46.523Z,99208.88
2023-05-11T08:17:33.818Z,99212.25
2023-05-11T08:20:20.400Z,99211.31
2023-05-11T08:23:07.002Z,99208.75
2023-05-11T08:25:56.352Z,99207.81
2023-05-11T08:28:43.609Z,99209.47
2023-05-11T08:31:31.953Z,99211.91
2023-05-11T08:34:20.003Z,99209.19
2023-05-11T08:37:06.853Z,99214.22
2023-05-11T08:39:53.438Z,99209.88
2023-05-11T08:42:42.636Z,99218.28
2023-05-11T08:45:30.312Z,99219.91
2023-05-11T08:48:21.011Z,99226.66
2023-05-11T08:51:07.830Z,99221.44
2023-05-11T08:53:54.422Z,99218.72
2023-05-11T08:56:43.246Z,99217.78
2023-05-11T08:59:30.446Z,99220.34
2023-05-11T09:02:19.887Z,99215.91
2023-05-11T09:05:09.760Z,99220.91
2023-05-11T09:08:01.983Z,99219.16
2023-05-11T09:10:50.708Z,99217.53
2023-05-11T09:13:37.152Z,99221.72
2023-05-11T09:16:33.038Z,99228.50
2023-05-11T09:19:23.533Z,99224.06
2023-05-11T09:22:11.924Z,99224.06
2023-05-11T09:24:59.847Z,99228.22
2023-05-11T09:27:49.053Z,99226.50
2023-05-11T09:30:35.437Z,99231.63
2023-05-11T09:33:26.754Z,99221.34
2023-05-11T09:36:24.941Z,99224.72
2023-05-11T09:39:15.905Z,99225.66
2023-05-11T09:42:14.125Z,99224.72
2023-05-11T09:45:00.882Z,99213.66
2023-05-11T09:47:49.036Z,99226.38
2023-05-11T09:50:37.185Z,99227.31
2023-05-11T09:53:36.569Z,99228.94
2023-05-11T09:56:24.250Z,99228.94
2023-05-11T09:59:12.917Z,99224.59
2023-05-11T10:02:20.057Z,99223.78
2023-05-11T10:05:14.256Z,99228.94
2023-05-11T10:08:03.885Z,99224.59
2023-05-11T10:10:50.524Z,99217.84
2023-05-11T10:13:39.158Z,99228.94
2023-05-11T10:16:25.499Z,99227.16
2023-05-11T10:19:13.653Z,99228.00
2023-05-11T10:22:01.830Z,99232.22
2023-05-11T10:24:49.235Z,99226.25
2023-05-11T10:27:35.664Z,99219.22
2023-05-11T10:30:24.771Z,99220.84
2023-05-11T10:33:12.671Z,99225.88
2023-05-11T10:35:59.458Z,99218.03
2023-05-11T10:38:46.130Z,99215.47
2023-05-11T10:41:48.963Z,99221.41
2023-05-11T10:45:04.212Z,99218.72
2023-05-11T10:48:50.626Z,99211.13
2023-05-11T10:52:02.664Z,99214.41
2023-05-11T10:55:10.421Z,99210.88
2023-05-11T10:58:09.486Z,99202.22
2023-05-11T11:01:38.010Z,99210.75
2023-05-11T11:04:28.117Z,99205.50
2023-05-11T11:07:18.157Z,99212.00
2023-05-11T11:10:07.014Z,99208.38
2023-05-11T11:13:04.579Z,99211.63
2023-05-11T11:16:16.147Z,99205.53
2023-05-11T11:19:42.260Z,99207.28
2023-05-11T11:22:47.070Z,99198.63
2023-05-11T11:25:54.783Z,99197.72
2023-05-11T11:29:10.028Z,99191.63
2023-05-11T11:31:56.591Z,99195.81
2023-05-11T11:34:44.285Z,99189.72
2023-05-11T11:37:30.629Z,99192.03
2023-05-11T11:40:17.493Z,99188.41
2023-05-11T11:43:12.425Z,99186.53
2023-05-11T11:46:00.468Z,99183.81
2023-05-11T11:48:48.912Z,99184.53
2023-05-11T11:51:40.025Z,99180.06
2023-05-11T11:54:38.224Z,99189.44
2023-05-11T11:57:46.569Z,99182.53
2023-05-11T12:00:33.588Z,99182.38
2023-05-11T12:03:24.720Z,99171.16
2023-05-11T12:06:12.636Z,99179.59
2023-05-11T12:09:00.848Z,99180.25
2023-05-11T12:11:48.274Z,99175.09
2023-05-11T12:14:36.681Z,99180.81
2023-05-11T12:17:29.796Z,99171.31
2023-05-11T12:20:19.493Z,99177.19
2023-05-11T12:23:06.091Z,99176.22
2023-05-11T12:26:03.452Z,99164.97
2023-05-11T12:28:50.596Z,99168.38
2023-05-11T12:31:37.390Z,99168.25
2023-05-11T12:34:24.556Z,99169.84
2023-05-11T12:37:11.311Z,99166.34
2023-05-11T12:39:58.978Z,99165.41
2023-05-11T12:42:52.919Z,99163.50
2023-05-11T12:45:39.694Z,99155.78
2023-05-11T12:48:26.379Z,99154.84
2023-05-11T12:51:12.981Z,99142.00
2023-05-11T12:53:59.335Z,99144.31
2023-05-11T12:56:47.092Z,99153.66
2023-05-11T12:59:38.404Z,99152.56
2023-05-11T13:02:24.759Z,99154.22
2023-05-11T13:05:15.607Z,99153.28
2023-05-11T13:08:05.730Z,99145.41
2023-05-11T13:10:52.346Z,99141.06
2023-05-11T13:13:39.204Z,99135.94
2023-05-11T13:16:28.643Z,99130.66
2023-05-11T13:19:15.378Z,99137.69
2023-05-11T13:22:02.147Z,99129.84
2023-05-11T13:24:50.870Z,99131.63
2023-05-11T13:27:37.887Z,99129.84
2023-05-11T13:30:24.720Z,99133.22
2023-05-11T13:33:12.492Z,99129.84
2023-05-11T13:36:00.852Z,99127.28
2023-05-11T13:38:47.113Z,99128.06
2023-05-11T13:41:37.142Z,99125.63
2023-05-11T13:44:23.535Z,99126.56
2023-05-11T13:47:10.188Z,99119.81
2023-05-11T13:49:58.751Z,99123.19
2023-05-11T13:52:45.738Z,99118.06
2023-05-11T13:55:32.246Z,99113.84
2023-05-11T13:58:18.794Z,99107.09
2023-05-11T14:01:08.307Z,99109.69
2023-05-11T14:03:56.932Z,99104.53
2023-05-11T14:06:45.613Z,99108.84
2023-05-11T14:09:32.443Z,99105.34
2023-05-11T14:12:19.274Z,99103.56
2023-05-11T14:15:07.635Z,99107.75
2023-05-11T14:17:54.760Z,99102.63
2023-05-11T14:20:42.170Z,99106.00
2023-05-11T14:23:29.824Z,99088.81
2023-05-11T14:26:16.623Z,99088.00
2023-05-11T14:29:03.063Z,99095.59
2023-05-11T14:31:50.221Z,99097.19
2023-05-11T14:34:37.050Z,99090.47
2023-05-11T14:37:23.638Z,99098.16
2023-05-11T14:40:12.490Z,99090.47
2023-05-11T14:42:58.936Z,99093.81
2023-05-11T14:45:48.862Z,99093.03
2023-05-11T14:48:35.195Z,99096.53
2023-05-11T14:51:21.858Z,99095.69
2023-05-11T14:54:08.686Z,99090.56
2023-05-11T14:56:58.225Z,99088.00
2023-05-11T14:59:58.439Z,99085.56
2023-05-11T15:02:46.329Z,99093.28
2023-05-11T15:05:32.808Z,99083.94
2023-05-11T15:08:29.665Z,99095.84
2023-05-11T15:11:18.038Z,99088.25
2023-05-11T15:14:06.745Z,99092.59
2023-05-11T15:16:54.701Z,99095.31
2023-05-11T15:19:41.369Z,99097.06
2023-05-11T15:22:27.804Z,99095.44
2023-05-11T15:25:14.340Z,99094.63
2023-05-11T15:28:01.121Z,99091.25
2023-05-11T15:30:49.699Z,99100.84
2023-05-11T15:33:35.978Z,99097.59
2023-05-11T15:36:22.467Z,99099.34
2023-05-11T15:39:09.670Z,99096.09
2023-05-11T15:41:57.665Z,99100.41
2023-05-11T15:44:44.320Z,99102.19
2023-05-11T15:47:32.095Z,99103.13
2023-05-11T15:50:18.940Z,99097.19
2023-05-11T15:53:05.868Z,99092.97
2023-05-11T15:55:55.205Z,99100.69
2023-05-11T15:58:42.076Z,99104.19
2023-05-11T16:01:28.787Z,99100.81
2023-05-11T16:04:17.044Z,99097.44
2023-05-11T16:07:09.739Z,99103.53
2023-05-11T16:09:56.618Z,99099.31
2023-05-11T16:12:43.377Z,99099.31
2023-05-11T16:15:31.082Z,99100.25
2023-05-11T16:18:19.533Z,99103.66
2023-05-11T16:21:08.258Z,99093.38
2023-05-11T16:23:54.709Z,99097.69
2023-05-11T16:26:41.134Z,99099.31
2023-05-11T16:29:27.542Z,99098.53
2023-05-11T16:32:14.841Z,99101.09
2023-05-11T16:35:01.541Z,99103.66
2023-05-11T16:37:49.635Z,99101.09
2023-05-11T16:40:36.089Z,99107.19
2023-05-11T16:43:22.801Z,99099.59
2023-05-11T16:46:09.754Z,99097.03
2023-05-11T16:48:57.330Z,99107.31
2023-05-11T16:51:45.038Z,99094.59
2023-05-11T16:54:33.545Z,99095.53
2023-05-11T16:57:20.323Z,99099.88
2023-05-11T17:00:09.935Z,99105.00
2023-05-11T17:02:57.021Z,99105.13
2023-05-11T17:05:44.449Z,99096.59
2023-05-11T17:08:32.078Z,99096.72
2023-05-11T17:11:20.219Z,99100.25
2023-05-11T17:14:06.891Z,99096.88
2023-05-11T17:16:53.287Z,99100.34
2023-05-11T17:19:39.995Z,99095.34
2023-05-11T17:22:29.617Z,99100.63
2023-05-11T17:25:16.488Z,99105.06
2023-05-11T17:28:04.596Z,99098.31
2023-05-11T17:30:52.838Z,99104.41
2023-05-11T17:33:40.153Z,99102.75
2023-05-11T17:36:29.263Z,99108.97
2023-05-11T17:39:17.668Z,99107.34
2023-05-11T17:42:04.686Z,99109.91
2023-05-11T17:44:52.527Z,99115.19
2023-05-11T17:47:39.166Z,99107.59
2023-05-11T17:50:26.012Z,99115.44
2023-05-11T17:53:12.570Z,99111.25
2023-05-11T17:55:59.762Z,99113.81
2023-05-11T17:58:47.503Z,99113.00
2023-05-11T18:01:35.700Z,99110.44
2023-05-11T18:04:22.558Z,99120.84
2023-05-11T18:07:09.570Z,99120.16
2023-05-11T18:09:56.338Z,99126.25
2023-05-11T18:12:43.084Z,99127.06
2023-05-11T18:15:29.814Z,99127.22
2023-05-11T18:18:17.914Z,99134.91
2023-05-11T18:21:06.646Z,99129.78
2023-05-11T18:23:53.220Z,99123.00
2023-05-11T18:26:40.000Z,99129.06
2023-05-11T18:29:26.937Z,99122.16
2023-05-11T18:32:13.930Z,99132.44
2023-05-11T18:35:01.597Z,99136.78
2023-05-11T18:37:48.538Z,99129.19
2023-05-11T18:40:35.880Z,99132.72
2023-05-11T18:43:22.236Z,99131.91
2023-05-11T18:46:12.183Z,99129.47
2023-05-11T18:48:58.648Z,99133.78
2023-05-11T18:51:46.709Z,99132.97
2023-05-11T18:54:33.675Z,99135.53
2023-05-11T18:57:20.980Z,99138.13
2023-05-11T19:00:10.148Z,99133.91
2023-05-11T19:02:56.954Z,99138.38
2023-05-11T19:05:44.820Z,99137.53
2023-05-11T19:08:33.159Z,99141.75
2023-05-11T19:11:19.821Z,99152.16
2023-05-11T19:14:07.518Z,99144.59
2023-05-11T19:16:54.054Z,99151.59
2023-05-11T19:19:40.473Z,99158.63
2023-05-11T19:22:27.159Z,99154.44
2023-05-11T19:25:15.108Z,99159.56
2023-05-11T19:28:01.857Z,99162.13
2023-05-11T19:30:48.404Z,99162.13
2023-05-11T19:33:36.416Z,99171.59
2023-05-11T19:36:23.029Z,99164.84
2023-05-11T19:39:09.845Z,99158.84
2023-05-11T19:41:57.850Z,99162.53
2023-05-11T19:44:44.542Z,99161.81
2023-05-11T19:47:31.116Z,99166.16
2023-05-11T19:50:19.339Z,99167.22
2023-05-11T19:53:08.183Z,99170.72
2023-05-11T19:55:55.011Z,99173.44
2023-05-11T19:58:42.815Z,99174.22
2023-05-11T20:01:29.712Z,99170.97
2023-05-11T20:04:16.570Z,99170.16
2023-05-11T20:07:03.657Z,99168.53
2023-05-11T20:09:50.183Z,99183.97
2023-05-11T20:12:37.861Z,99172.97
2023-05-11T20:15:26.140Z,99171.22
2023-05-11T20:18:12.875Z,99174.88
2023-05-11T20:20:59.155Z,99166.47
2023-05-11T20:23:46.023Z,99169.84
2023-05-11T20:26:32.640Z,99167.41
2023-05-11T20:29:19.373Z,99167.41
2023-05-11T20:32:08.460Z,99174.16
2023-05-11T20:34:55.063Z,99169.97
2023-05-11T20:37:41.465Z,99176.06
2023-05-11T20:40:28.276Z,99164.97
2023-05-11T20:43:15.143Z,99159.94
2023-05-11T20:46:03.293Z,99162.53
2023-05-11T20:48:52.097Z,99162.53
2023-05-11T20:51:39.380Z,99165.88
2023-05-11T20:54:25.736Z,99159.03
2023-05-11T20:57:12.506Z,99169.28
2023-05-11T21:02:49.074Z,99159.94
2023-05-11T21:05:36.820Z,99155.75
2023-05-11T21:08:23.566Z,99159.94
2023-05-11T21:11:10.621Z,99154.81
2023-05-11T21:13:57.387Z,99150.38
2023-05-11T21:16:44.072Z,99152.94
2023-05-11T21:19:30.575Z,99153.88
2023-05-11T21:22:18.489Z,99157.13
2023-05-11T21:25:06.645Z,99152.81
2023-05-11T21:27:52.975Z,99146.84
2023-05-11T21:30:39.630Z,99146.72
2023-05-11T21:33:26.187Z,99150.13
2023-05-11T21:36:12.863Z,99144.16
2023-05-11T21:39:02.330Z,99146.63
2023-05-11T21:41:48.727Z,99147.56
2023-05-11T21:44:35.113Z,99146.84
2023-05-11T21:47:21.884Z,99144.41
2023-05-11T21:50:10.849Z,99149.69
2023-05-11T21:52:57.856Z,99149.00
2023-05-11T21:55:45.937Z,99150.63
2023-05-11T21:58:32.535Z,99152.50
2023-05-11T22:01:18.964Z,99150.88
2023-05-11T22:04:06.235Z,99156.00
2023-05-11T22:06:52.831Z,99156.94
2023-05-11T22:09:39.641Z,99159.75
2023-05-11T22:12:27.417Z,99153.81
2023-05-11T22:15:14.331Z,99155.69
2023-05-11T22:18:05.983Z,99149.75
2023-05-11T22:20:52.551Z,99156.63
2023-05-11T22:23:39.385Z,99153.25
2023-05-11T22:26:26.229Z,99148.13
2023-05-11T22:29:17.066Z,99148.91
2023-05-11T22:32:03.860Z,99146.34
2023-05-11T22:34:58.525Z,99142.97
2023-05-11T22:37:45.601Z,99147.19
2023-05-11T22:40:32.353Z,99148.00
2023-05-11T22:43:18.875Z,99149.03
2023-05-11T22:46:07.067Z,99155.03
2023-05-11T22:48:53.885Z,99156.75
2023-05-11T22:51:40.578Z,99148.38
2023-05-11T22:54:27.506Z,99155.13
2023-05-11T22:57:16.999Z,99153.50
2023-05-11T23:00:03.955Z,99150.94
2023-05-11T23:02:51.787Z,99149.44
2023-05-11T23:05:38.737Z,99150.25
2023-05-11T23:08:26.033Z,99150.25
2023-05-11T23:11:12.732Z,99145.09
2023-05-11T23:13:59.441Z,99142.53
2023-05-11T23:16:45.834Z,99149.44
2023-05-11T23:19:34.090Z,99148.59
2023-05-11T23:22:20.665Z,99142.66
2023-05-11T23:25:08.251Z,99146.16
2023-05-11T23:27:55.580Z,99152.94
2023-05-11T23:30:42.110Z,99147.78
2023-05-11T23:33:28.425Z,99147.00
2023-05-11T23:36:17.024Z,99144.44
2023-05-11T23:39:03.745Z,99140.09
2023-05-11T23:41:50.347Z,99142.66
2023-05-11T23:44:37.069Z,99141.88
2023-05-11T23:47:23.869Z,99137.53
2023-05-11T23:50:11.176Z,99137.53
2023-05-11T23:52:59.232Z,99136.72
2023-05-11T23:55:48.001Z,99137.53
2023-05-11T23:58:34.305Z,99136.72
